createdAt,value
2023-01-20T00:02:00.831Z,17.03
2023-01-20T00:05:04.765Z,17.07
2023-01-20T00:08:10.229Z,17.07
2023-01-20T00:11:14.605Z,17.06
2023-01-20T00:14:18.417Z,17.06
2023-01-20T00:17:22.258Z,17.05
2023-01-20T00:20:25.782Z,16.98
2023-01-20T00:23:30.939Z,17.12
2023-01-20T00:26:34.802Z,17.21
2023-01-20T00:29:38.657Z,17.27
2023-01-20T00:32:45.026Z,17.40
2023-01-20T00:35:48.663Z,17.28
2023-01-20T00:38:54.033Z,17.38
2023-01-20T00:41:57.598Z,17.40
2023-01-20T00:45:01.315Z,17.33
2023-01-20T00:48:05.053Z,17.35
2023-01-20T00:51:09.743Z,17.51
2023-01-20T00:54:15.081Z,17.50
2023-01-20T00:57:18.815Z,17.38
2023-01-20T01:00:22.610Z,17.17
2023-01-20T01:03:28.302Z,17.26
2023-01-20T01:06:32.178Z,17.26
2023-01-20T01:09:37.442Z,17.39
2023-01-20T01:12:41.001Z,17.42
2023-01-20T01:15:50.175Z,17.45
2023-01-20T01:18:56.664Z,17.38
2023-01-20T01:22:00.241Z,17.54
2023-01-20T01:25:06.118Z,17.59
2023-01-20T01:28:09.795Z,17.62
2023-01-20T01:31:13.565Z,17.60
2023-01-20T01:34:17.075Z,17.56
2023-01-20T01:37:20.728Z,17.50
2023-01-20T01:40:25.858Z,17.46
2023-01-20T01:43:32.497Z,17.45
2023-01-20T01:46:36.724Z,17.62
2023-01-20T01:49:40.307Z,17.67
2023-01-20T01:52:46.753Z,17.56
2023-01-20T01:55:55.674Z,17.52
2023-01-20T01:59:03.982Z,17.28
2023-01-20T02:02:10.098Z,16.72
2023-01-20T02:05:16.135Z,16.43
2023-01-20T02:08:20.844Z,16.10
2023-01-20T02:11:26.101Z,15.94
2023-01-20T02:14:34.269Z,15.73
2023-01-20T02:17:45.125Z,15.31
2023-01-20T02:21:18.161Z,15.38
2023-01-20T02:25:21.488Z,15.35
2023-01-20T02:29:00.119Z,15.44
2023-01-20T02:32:17.222Z,15.34
2023-01-20T02:35:28.288Z,15.09
2023-01-20T02:38:39.352Z,14.98
2023-01-20T02:41:52.378Z,14.89
2023-01-20T02:45:01.290Z,14.75
2023-01-20T02:48:13.822Z,14.97
2023-01-20T02:51:21.240Z,14.87
2023-01-20T02:54:28.798Z,15.01
2023-01-20T02:57:40.373Z,14.90
2023-01-20T03:00:49.832Z,14.95
2023-01-20T03:03:59.293Z,15.05
2023-01-20T03:07:05.167Z,14.81
2023-01-20T03:10:14.458Z,14.85
2023-01-20T03:13:24.083Z,14.83
2023-01-20T03:16:29.639Z,14.79
2023-01-20T03:19:34.720Z,14.68
2023-01-20T03:22:38.590Z,14.93
2023-01-20T03:25:43.007Z,14.84
2023-01-20T03:28:48.990Z,14.47
2023-01-20T03:31:56.437Z,14.46
2023-01-20T03:35:01.787Z,14.64
2023-01-20T03:38:05.778Z,14.41
2023-01-20T03:41:18.120Z,14.37
2023-01-20T03:44:30.178Z,14.53
2023-01-20T03:47:51.888Z,14.45
2023-01-20T03:50:59.813Z,14.25
2023-01-20T03:54:09.085Z,14.21
2023-01-20T03:57:18.075Z,14.47
2023-01-20T04:00:24.740Z,14.58
2023-01-20T04:03:31.102Z,14.54
2023-01-20T04:06:37.373Z,14.35
2023-01-20T04:09:45.942Z,14.56
2023-01-20T04:12:50.102Z,14.41
2023-01-20T04:15:53.985Z,14.64
2023-01-20T04:18:57.610Z,14.49
2023-01-20T04:22:07.612Z,13.61
2023-01-20T04:25:17.146Z,14.30
2023-01-20T04:28:20.997Z,14.31
2023-01-20T04:31:30.525Z,14.22
2023-01-20T04:34:35.388Z,14.22
2023-01-20T04:37:40.660Z,14.16
2023-01-20T04:40:44.539Z,14.37
2023-01-20T04:43:48.599Z,14.64
2023-01-20T04:46:52.380Z,14.49
2023-01-20T04:49:56.029Z,14.25
2023-01-20T04:53:01.101Z,14.29
2023-01-20T04:56:04.754Z,14.28
2023-01-20T04:59:08.497Z,14.31
2023-01-20T05:02:12.487Z,14.45
2023-01-20T05:05:16.996Z,14.39
2023-01-20T05:08:22.590Z,14.04
2023-01-20T05:11:26.407Z,14.27
2023-01-20T05:14:30.139Z,14.41
2023-01-20T05:17:34.007Z,14.43
2023-01-20T05:20:37.821Z,14.41
2023-01-20T05:23:42.940Z,14.23
2023-01-20T05:26:46.610Z,14.02
2023-01-20T05:29:50.221Z,14.13
2023-01-20T05:32:54.266Z,14.10
2023-01-20T05:35:58.140Z,13.92
2023-01-20T05:39:03.628Z,14.06
2023-01-20T05:42:07.759Z,14.20
2023-01-20T05:45:12.200Z,14.08
2023-01-20T05:48:16.283Z,14.34
2023-01-20T05:51:19.846Z,14.35
2023-01-20T05:54:26.373Z,14.39
2023-01-20T05:57:30.059Z,14.36
2023-01-20T06:00:34.599Z,14.50
2023-01-20T06:03:38.919Z,14.64
2023-01-20T06:06:42.811Z,14.73
2023-01-20T06:09:48.082Z,14.82
2023-01-20T06:12:54.181Z,14.74
2023-01-20T06:15:58.400Z,14.96
2023-01-20T06:19:02.686Z,15.03
2023-01-20T06:22:06.478Z,14.95
2023-01-20T06:25:12.115Z,14.99
2023-01-20T06:28:16.019Z,14.82
2023-01-20T06:31:19.930Z,14.86
2023-01-20T06:34:23.829Z,14.92
2023-01-20T06:37:27.866Z,14.62
2023-01-20T06:40:33.199Z,14.97
2023-01-20T06:43:40.339Z,15.18
2023-01-20T06:46:45.714Z,15.10
2023-01-20T06:49:50.518Z,15.43
2023-01-20T06:52:56.118Z,15.46
2023-01-20T06:56:02.471Z,15.55
2023-01-20T06:59:06.319Z,15.30
2023-01-20T07:02:11.311Z,15.10
2023-01-20T07:05:15.661Z,14.54
2023-01-20T07:08:19.738Z,14.37
2023-01-20T07:11:25.242Z,14.68
2023-01-20T07:14:28.946Z,14.92
2023-01-20T07:17:32.681Z,15.22
2023-01-20T07:20:36.522Z,15.45
2023-01-20T07:23:40.540Z,15.49
2023-01-20T07:26:45.799Z,15.54
2023-01-20T07:29:49.599Z,15.62
2023-01-20T07:32:53.527Z,15.78
2023-01-20T07:35:57.300Z,15.32
2023-01-20T07:39:01.038Z,15.07
2023-01-20T07:42:06.444Z,14.69
2023-01-20T07:45:10.938Z,14.66
2023-01-20T07:48:14.808Z,14.74
2023-01-20T07:51:19.164Z,14.42
2023-01-20T07:54:23.079Z,14.35
2023-01-20T07:57:30.319Z,14.14
2023-01-20T08:00:34.189Z,13.94
2023-01-20T08:03:38.618Z,13.85
2023-01-20T08:06:42.551Z,13.55
2023-01-20T08:09:46.302Z,13.31
2023-01-20T08:12:51.625Z,13.12
2023-01-20T08:15:55.518Z,12.95
2023-01-20T08:18:59.259Z,12.49
2023-01-20T08:22:03.117Z,12.59
2023-01-20T08:25:07.618Z,12.76
2023-01-20T08:28:13.019Z,12.73
2023-01-20T08:31:19.216Z,12.82
2023-01-20T08:34:23.461Z,12.89
2023-01-20T08:37:27.262Z,13.20
2023-01-20T08:40:32.837Z,13.53
2023-01-20T08:43:39.623Z,13.69
2023-01-20T08:46:44.299Z,13.85
2023-01-20T08:49:48.046Z,13.90
2023-01-20T08:52:51.938Z,13.91
2023-01-20T08:55:59.820Z,13.46
2023-01-20T08:59:05.938Z,13.82
2023-01-20T09:02:11.902Z,14.09
2023-01-20T09:05:16.029Z,14.28
2023-01-20T09:08:21.339Z,14.39
2023-01-20T09:11:26.734Z,14.15
2023-01-20T09:14:32.011Z,14.34
2023-01-20T09:17:37.065Z,13.99
2023-01-20T09:20:40.740Z,13.94
2023-01-20T09:23:44.947Z,14.11
2023-01-20T09:26:49.958Z,14.04
2023-01-20T09:29:55.428Z,14.27
2023-01-20T09:32:59.747Z,14.57
2023-01-20T09:36:04.640Z,15.01
2023-01-20T09:39:26.119Z,15.49
2023-01-20T09:42:53.675Z,16.53
2023-01-20T09:46:05.286Z,17.37
2023-01-20T09:49:37.778Z,17.20
2023-01-20T09:52:58.868Z,17.40
2023-01-20T09:56:08.453Z,17.37
2023-01-20T09:59:20.247Z,17.06
2023-01-20T10:02:31.259Z,17.95
2023-01-20T10:05:41.159Z,17.93
2023-01-20T10:09:04.819Z,17.71
2023-01-20T10:12:14.583Z,17.15
2023-01-20T10:15:22.466Z,16.71
2023-01-20T10:18:36.808Z,16.32
2023-01-20T10:21:45.919Z,15.96
2023-01-20T10:24:56.758Z,15.88
2023-01-20T10:28:06.548Z,15.61
2023-01-20T10:31:12.727Z,15.94
2023-01-20T10:34:21.150Z,16.59
2023-01-20T10:37:26.003Z,16.71
2023-01-20T10:40:37.957Z,17.00
2023-01-20T10:43:41.898Z,17.10
2023-01-20T10:46:59.710Z,17.34
2023-01-20T10:50:28.271Z,17.16
2023-01-20T10:53:48.958Z,16.76
2023-01-20T10:56:56.280Z,16.80
2023-01-20T11:00:03.664Z,16.46
2023-01-20T11:03:11.369Z,15.97
2023-01-20T11:06:21.087Z,16.05
2023-01-20T11:09:35.662Z,15.75
2023-01-20T11:12:43.463Z,15.64
2023-01-20T11:15:49.178Z,15.39
2023-01-20T11:19:01.610Z,15.41
2023-01-20T11:22:14.490Z,15.23
2023-01-20T11:25:27.106Z,15.08
2023-01-20T11:28:37.381Z,15.05
2023-01-20T11:31:43.532Z,15.19
2023-01-20T11:34:51.085Z,15.26
2023-01-20T11:37:56.398Z,15.18
2023-01-20T11:41:00.978Z,15.46
2023-01-20T11:44:08.510Z,15.05
2023-01-20T11:47:28.000Z,15.30
2023-01-20T11:50:38.126Z,15.18
2023-01-20T11:53:44.578Z,15.10
2023-01-20T11:56:52.578Z,14.78
2023-01-20T11:59:56.446Z,14.70
2023-01-20T12:03:02.660Z,14.81
2023-01-20T12:06:16.432Z,14.81
2023-01-20T12:09:27.271Z,14.93
2023-01-20T12:12:38.325Z,14.85
2023-01-20T12:15:45.919Z,14.87
2023-01-20T12:19:02.138Z,14.89
2023-01-20T12:22:14.981Z,15.14
2023-01-20T12:25:23.978Z,15.18
2023-01-20T12:28:36.480Z,15.30
2023-01-20T12:31:40.737Z,15.23
2023-01-20T12:34:44.562Z,15.11
2023-01-20T12:37:55.278Z,15.33
2023-01-20T12:41:06.068Z,15.44
2023-01-20T12:44:21.506Z,15.44
2023-01-20T12:47:40.881Z,15.43
2023-01-20T12:51:02.240Z,15.26
2023-01-20T12:54:47.515Z,15.26
2023-01-20T12:58:11.159Z,15.08
2023-01-20T13:01:39.078Z,15.30
2023-01-20T13:04:59.089Z,15.24
2023-01-20T13:08:16.939Z,15.28
2023-01-20T13:11:31.678Z,14.97
2023-01-20T13:14:42.498Z,14.96
2023-01-20T13:18:07.278Z,14.51
2023-01-20T13:21:18.933Z,14.58
2023-01-20T13:24:29.517Z,14.37
2023-01-20T13:27:36.412Z,14.38
2023-01-20T13:30:44.328Z,14.46
2023-01-20T13:33:48.322Z,14.36
2023-01-20T13:37:25.398Z,14.31
2023-01-20T13:40:49.600Z,14.59
2023-01-20T13:43:53.538Z,14.30
2023-01-20T13:46:58.784Z,14.23
2023-01-20T13:50:23.982Z,14.10
2023-01-20T13:53:29.792Z,14.36
2023-01-20T13:56:45.647Z,14.15
2023-01-20T13:59:49.452Z,14.14
2023-01-20T14:02:55.038Z,13.99
2023-01-20T14:06:02.981Z,14.05
2023-01-20T14:09:20.401Z,14.03
2023-01-20T14:12:24.345Z,13.92
2023-01-20T14:15:37.918Z,13.93
2023-01-20T14:18:43.218Z,14.17
2023-01-20T14:21:54.454Z,14.36
2023-01-20T14:25:01.023Z,14.04
2023-01-20T14:28:04.826Z,14.25
2023-01-20T14:31:21.562Z,14.10
2023-01-20T14:34:29.320Z,14.51
2023-01-20T14:37:36.608Z,14.44
2023-01-20T14:40:43.281Z,14.20
2023-01-20T14:43:47.007Z,13.99
2023-01-20T14:46:52.719Z,14.23
2023-01-20T14:49:58.073Z,14.07
2023-01-20T14:53:02.059Z,14.20
2023-01-20T14:56:08.533Z,14.32
2023-01-20T14:59:20.444Z,14.43
2023-01-20T15:02:31.076Z,14.57
2023-01-20T15:05:42.306Z,14.67
2023-01-20T15:09:04.349Z,14.57
2023-01-20T15:12:46.399Z,14.77
2023-01-20T15:15:50.362Z,14.77
2023-01-20T15:19:32.780Z,14.70
2023-01-20T15:22:43.500Z,14.66
2023-01-20T15:25:47.622Z,14.61
2023-01-20T15:28:51.498Z,14.61
2023-01-20T15:31:56.604Z,14.75
2023-01-20T15:35:00.522Z,14.72
2023-01-20T15:38:11.881Z,14.86
2023-01-20T15:41:16.382Z,14.72
2023-01-20T15:44:20.118Z,14.54
2023-01-20T15:47:31.183Z,14.07
2023-01-20T15:50:35.439Z,13.27
2023-01-20T15:53:40.785Z,12.86
2023-01-20T15:56:45.335Z,12.84
2023-01-20T15:59:50.304Z,12.44
2023-01-20T16:02:54.304Z,11.97
2023-01-20T16:05:58.218Z,12.14
2023-01-20T16:09:05.098Z,12.27
2023-01-20T16:12:15.583Z,12.05
2023-01-20T16:15:20.010Z,12.09
2023-01-20T16:18:23.978Z,12.28
2023-01-20T16:21:28.002Z,12.32
2023-01-20T16:24:33.119Z,12.50
2023-01-20T16:27:36.987Z,12.67
2023-01-20T16:30:40.965Z,12.48
2023-01-20T16:33:44.878Z,12.38
2023-01-20T16:36:48.843Z,12.22
2023-01-20T16:39:54.218Z,12.22
2023-01-20T16:42:58.080Z,11.92
2023-01-20T16:46:02.083Z,11.97
2023-01-20T16:49:05.880Z,11.81
2023-01-20T16:52:09.714Z,11.81
2023-01-20T16:55:15.058Z,11.69
2023-01-20T16:58:18.933Z,11.92
2023-01-20T17:01:24.936Z,11.60
2023-01-20T17:04:29.617Z,11.61
2023-01-20T17:07:34.059Z,11.38
2023-01-20T17:10:39.328Z,11.26
2023-01-20T17:13:43.118Z,11.35
2023-01-20T17:16:47.009Z,11.26
2023-01-20T17:19:50.821Z,11.41
2023-01-20T17:22:56.564Z,11.45
2023-01-20T17:26:03.258Z,11.40
2023-01-20T17:29:07.419Z,11.51
2023-01-20T17:32:11.139Z,11.59
2023-01-20T17:35:15.040Z,11.69
2023-01-20T17:38:18.940Z,11.72
2023-01-20T17:41:24.257Z,11.69
2023-01-20T17:44:28.139Z,11.81
2023-01-20T17:47:32.070Z,11.47
2023-01-20T17:50:36.192Z,11.69
2023-01-20T17:53:40.000Z,11.28
2023-01-20T17:56:46.219Z,11.64
2023-01-20T17:59:50.458Z,11.65
2023-01-20T18:02:57.298Z,11.58
2023-01-20T18:06:01.242Z,11.74
2023-01-20T18:09:07.469Z,11.79
2023-01-20T18:12:13.552Z,11.28
2023-01-20T18:15:17.699Z,11.50
2023-01-20T18:18:21.499Z,11.53
2023-01-20T18:21:26.861Z,11.58
2023-01-20T18:24:30.798Z,11.46
2023-01-20T18:27:36.167Z,11.38
2023-01-20T18:30:40.222Z,11.53
2023-01-20T18:33:45.840Z,11.38
2023-01-20T18:36:50.020Z,11.35
2023-01-20T18:39:53.958Z,11.53
2023-01-20T18:42:59.139Z,11.42
2023-01-20T18:46:03.039Z,11.67
2023-01-20T18:49:09.576Z,11.53
2023-01-20T18:52:13.682Z,11.57
2023-01-20T18:55:17.640Z,11.55
2023-01-20T18:58:22.831Z,11.56
2023-01-20T19:01:29.107Z,11.40
2023-01-20T19:04:33.919Z,11.63
2023-01-20T19:07:37.699Z,11.85
2023-01-20T19:10:41.585Z,12.02
2023-01-20T19:13:47.140Z,11.95
2023-01-20T19:16:51.079Z,11.67
2023-01-20T19:19:54.868Z,11.73
2023-01-20T19:22:58.746Z,11.90
2023-01-20T19:26:03.540Z,11.80
2023-01-20T19:29:12.111Z,11.80
2023-01-20T19:32:15.908Z,11.89
2023-01-20T19:35:21.038Z,12.12
2023-01-20T19:38:24.780Z,12.14
2023-01-20T19:41:33.497Z,12.19
2023-01-20T19:44:38.868Z,12.10
2023-01-20T19:47:42.687Z,12.12
2023-01-20T19:50:47.225Z,11.92
2023-01-20T19:53:55.884Z,11.77
2023-01-20T19:56:59.741Z,11.82
2023-01-20T20:00:05.839Z,11.74
2023-01-20T20:03:15.141Z,11.88
2023-01-20T20:06:27.896Z,11.68
2023-01-20T20:09:31.760Z,11.63
2023-01-20T20:12:35.619Z,10.92
2023-01-20T20:15:40.857Z,10.51
2023-01-20T20:18:44.878Z,10.90
2023-01-20T20:21:48.901Z,10.43
2023-01-20T20:24:52.760Z,11.01
2023-01-20T20:27:57.924Z,11.08
2023-01-20T20:31:08.834Z,11.17
2023-01-20T20:34:15.279Z,11.02
2023-01-20T20:37:19.147Z,11.10
2023-01-20T20:40:25.446Z,11.23
2023-01-20T20:43:29.349Z,11.21
2023-01-20T20:46:34.802Z,11.38
2023-01-20T20:49:38.680Z,11.53
2023-01-20T20:52:42.389Z,11.46
2023-01-20T20:55:46.316Z,10.89
2023-01-20T20:59:01.073Z,10.84
2023-01-20T21:02:07.574Z,10.64
2023-01-20T21:05:11.623Z,10.51
2023-01-20T21:08:15.419Z,10.74
2023-01-20T21:11:20.565Z,10.75
2023-01-20T21:14:25.712Z,10.88
2023-01-20T21:17:30.983Z,11.21
2023-01-20T21:20:34.923Z,11.34
2023-01-20T21:23:38.808Z,10.86
2023-01-20T21:26:43.383Z,10.85
2023-01-20T21:29:47.299Z,10.91
2023-01-20T21:32:54.258Z,10.96
2023-01-20T21:35:58.099Z,10.81
2023-01-20T21:39:01.959Z,11.09
2023-01-20T21:42:09.518Z,10.48
2023-01-20T21:45:13.458Z,10.93
2023-01-20T21:48:32.459Z,11.09
2023-01-20T21:51:53.561Z,11.19
2023-01-20T21:54:57.307Z,10.92
2023-01-20T21:58:01.075Z,10.98
2023-01-20T22:01:05.075Z,10.92
2023-01-20T22:04:10.360Z,11.13
2023-01-20T22:07:14.806Z,11.21
2023-01-20T22:10:19.046Z,11.22
2023-01-20T22:13:22.839Z,10.86
2023-01-20T22:16:27.378Z,11.22
2023-01-20T22:19:32.905Z,11.20
2023-01-20T22:22:36.726Z,11.26
2023-01-20T22:25:40.635Z,11.26
2023-01-20T22:28:45.563Z,11.07
2023-01-20T22:31:53.258Z,11.16
2023-01-20T22:34:58.918Z,11.20
2023-01-20T22:38:02.762Z,10.83
2023-01-20T22:41:07.575Z,11.08
2023-01-20T22:44:11.382Z,11.12
2023-01-20T22:47:15.260Z,11.03
2023-01-20T22:50:20.568Z,10.79
2023-01-20T22:53:24.339Z,10.42
2023-01-20T22:56:29.899Z,10.67
2023-01-20T22:59:33.658Z,10.77
2023-01-20T23:02:39.058Z,10.65
2023-01-20T23:05:52.160Z,10.60
2023-01-20T23:08:56.378Z,10.55
2023-01-20T23:12:00.321Z,10.65
2023-01-20T23:15:04.220Z,10.82
2023-01-20T23:18:08.778Z,10.70
2023-01-20T23:21:14.541Z,10.48
2023-01-20T23:24:18.439Z,10.54
2023-01-20T23:27:22.242Z,10.67
2023-01-20T23:30:26.919Z,10.41
2023-01-20T23:33:31.113Z,10.54
2023-01-20T23:36:36.484Z,10.51
2023-01-20T23:40:41.705Z,10.03
2023-01-20T23:43:45.460Z,9.66
2023-01-20T23:46:49.240Z,9.81
2023-01-20T23:49:52.910Z,10.27
2023-01-20T23:52:58.100Z,10.11
2023-01-20T23:56:02.612Z,10.18
2023-01-20T23:59:06.302Z,10.33
